createdAt,value
2022-09-23T00:01:36.367Z,101781.00
2022-09-23T00:04:04.951Z,101783.00
2022-09-23T00:06:33.843Z,101783.20
2022-09-23T00:09:02.841Z,101776.80
2022-09-23T00:11:33.347Z,101782.20
2022-09-23T00:14:01.951Z,101781.00
2022-09-23T00:16:36.517Z,101780.60
2022-09-23T00:19:06.835Z,101776.80
2022-09-23T00:21:35.895Z,101778.80
2022-09-23T00:24:05.239Z,101778.40
2022-09-23T00:26:35.242Z,101776.80
2022-09-23T00:29:04.413Z,101771.40
2022-09-23T00:31:32.997Z,101773.20
2022-09-23T00:34:02.305Z,101771.60
2022-09-23T00:36:32.722Z,101771.40
2022-09-23T00:39:02.639Z,101770.40
2022-09-23T00:41:32.967Z,101769.20
2022-09-23T00:44:03.985Z,101769.80
2022-09-23T00:46:39.232Z,101768.40
2022-09-23T00:49:15.721Z,101760.60
2022-09-23T00:51:55.979Z,101751.80
2022-09-23T00:54:28.284Z,101759.20
2022-09-23T00:57:00.295Z,101753.80
2022-09-23T00:59:29.409Z,101749.40
2022-09-23T01:02:00.650Z,101747.80
2022-09-23T01:04:30.576Z,101744.80
2022-09-23T01:06:59.675Z,101742.40
2022-09-23T01:09:29.105Z,101744.40
2022-09-23T01:12:40.973Z,101747.20
2022-09-23T01:15:35.069Z,101743.40
2022-09-23T01:18:42.460Z,101737.40
2022-09-23T01:21:39.402Z,101740.20
2022-09-23T01:24:46.943Z,101733.20
2022-09-23T01:27:28.077Z,101734.20
2022-09-23T01:30:50.074Z,101735.40
2022-09-23T01:33:31.805Z,101730.40
2022-09-23T01:36:10.540Z,101728.80
2022-09-23T01:38:45.008Z,101728.20
2022-09-23T01:42:01.356Z,101725.00
2022-09-23T01:44:52.067Z,101729.00
2022-09-23T01:47:35.960Z,101724.60
2022-09-23T01:50:33.873Z,101722.20
2022-09-23T01:53:12.374Z,101717.80
2022-09-23T01:55:47.983Z,101715.20
2022-09-23T01:58:26.699Z,101718.00
2022-09-23T02:01:07.344Z,101717.20
2022-09-23T02:04:08.890Z,101713.40
2022-09-23T02:06:52.526Z,101712.00
2022-09-23T02:09:26.262Z,101713.00
2022-09-23T02:12:06.079Z,101710.80
2022-09-23T02:15:00.468Z,101711.80
2022-09-23T02:17:43.902Z,101710.80
2022-09-23T02:20:21.126Z,101706.80
2022-09-23T02:22:57.328Z,101713.40
2022-09-23T02:25:34.844Z,101707.40
2022-09-23T02:28:14.180Z,101711.00
2022-09-23T02:31:01.096Z,101709.80
2022-09-23T02:33:44.628Z,101708.60
2022-09-23T02:36:53.764Z,101701.00
2022-09-23T02:39:31.700Z,101698.80
2022-09-23T02:42:11.003Z,101701.40
2022-09-23T02:44:40.923Z,101697.00
2022-09-23T02:47:10.883Z,101693.20
2022-09-23T02:49:39.525Z,101697.60
2022-09-23T02:52:08.826Z,101693.20
2022-09-23T02:54:38.143Z,101692.00
2022-09-23T02:57:08.688Z,101690.20
2022-09-23T02:59:37.962Z,101692.20
2022-09-23T03:02:31.247Z,101688.00
2022-09-23T03:05:30.624Z,101685.60
2022-09-23T03:09:06.992Z,101683.40
2022-09-23T03:11:40.825Z,101681.80
2022-09-23T03:14:49.244Z,101682.00
2022-09-23T03:17:25.594Z,101678.00
2022-09-23T03:20:16.401Z,101678.40
2022-09-23T03:22:56.248Z,101672.60
2022-09-23T03:25:27.601Z,101672.00
2022-09-23T03:27:59.720Z,101672.40
2022-09-23T03:30:30.931Z,101672.00
2022-09-23T03:33:01.165Z,101668.80
2022-09-23T03:35:33.609Z,101664.80
2022-09-23T03:38:17.591Z,101661.80
2022-09-23T03:40:51.235Z,101657.20
2022-09-23T03:43:20.140Z,101660.80
2022-09-23T03:45:48.786Z,101658.80
2022-09-23T03:48:17.623Z,101658.00
2022-09-23T03:50:46.618Z,101658.00
2022-09-23T03:53:15.212Z,101660.20
2022-09-23T03:55:43.890Z,101657.00
2022-09-23T03:58:12.371Z,101657.00
2022-09-23T04:00:41.407Z,101661.40
2022-09-23T04:03:11.863Z,101661.60
2022-09-23T04:05:41.913Z,101654.80
2022-09-23T04:08:10.498Z,101652.40
2022-09-23T04:10:42.562Z,101651.40
2022-09-23T04:13:11.146Z,101654.20
2022-09-23T04:15:41.696Z,101648.00
2022-09-23T04:18:10.265Z,101647.40
2022-09-23T04:20:39.664Z,101649.00
2022-09-23T04:23:08.513Z,101646.60
2022-09-23T04:25:44.513Z,101645.80
2022-09-23T04:28:13.531Z,101645.80
2022-09-23T04:30:44.587Z,101643.20
2022-09-23T04:33:14.483Z,101639.20
2022-09-23T04:35:43.825Z,101637.80
2022-09-23T04:38:13.450Z,101632.00
2022-09-23T04:40:42.051Z,101632.00
2022-09-23T04:43:13.563Z,101627.80
2022-09-23T04:45:45.683Z,101624.40
2022-09-23T04:48:14.165Z,101625.00
2022-09-23T04:50:42.750Z,101627.80
2022-09-23T04:53:11.332Z,101629.60
2022-09-23T04:55:39.920Z,101625.80
2022-09-23T04:58:10.244Z,101625.80
2022-09-23T05:00:38.763Z,101624.80
2022-09-23T05:03:07.582Z,101623.80
2022-09-23T05:05:36.101Z,101623.80
2022-09-23T05:08:04.590Z,101622.60
2022-09-23T05:10:33.472Z,101623.00
2022-09-23T05:13:01.959Z,101632.00
2022-09-23T05:15:30.550Z,101625.00
2022-09-23T05:17:59.531Z,101624.40
2022-09-23T05:20:28.429Z,101630.60
2022-09-23T05:22:57.110Z,101629.80
2022-09-23T05:25:25.594Z,101630.00
2022-09-23T05:27:54.284Z,101626.40
2022-09-23T05:30:22.765Z,101624.60
2022-09-23T05:32:51.252Z,101622.20
2022-09-23T05:35:19.744Z,101622.00
2022-09-23T05:37:48.207Z,101622.20
2022-09-23T05:40:17.118Z,101621.60
2022-09-23T05:42:45.927Z,101612.40
2022-09-23T05:45:14.727Z,101618.00
2022-09-23T05:47:44.286Z,101623.00
2022-09-23T05:50:12.772Z,101618.00
2022-09-23T05:52:41.557Z,101614.80
2022-09-23T05:55:11.984Z,101608.00
2022-09-23T05:57:40.479Z,101605.60
2022-09-23T06:00:10.970Z,101605.80
2022-09-23T06:02:42.798Z,101604.60
2022-09-23T06:05:12.471Z,101603.00
2022-09-23T06:07:41.057Z,101599.60
2022-09-23T06:10:09.941Z,101594.60
2022-09-23T06:12:38.424Z,101590.40
2022-09-23T06:15:08.031Z,101583.60
2022-09-23T06:17:36.518Z,101574.80
2022-09-23T06:20:05.958Z,101562.20
2022-09-23T06:22:37.766Z,101560.80
2022-09-23T06:25:08.960Z,101553.20
2022-09-23T06:27:37.508Z,101545.40
2022-09-23T06:30:07.635Z,101532.20
2022-09-23T06:32:36.110Z,101526.20
2022-09-23T06:35:06.068Z,101517.80
2022-09-23T06:37:35.428Z,101513.00
2022-09-23T06:40:04.642Z,101498.00
2022-09-23T06:42:33.110Z,101496.40
2022-09-23T06:45:02.350Z,101493.40
2022-09-23T06:47:30.893Z,101485.00
2022-09-23T06:49:59.477Z,101487.80
2022-09-23T06:52:28.984Z,101476.80
2022-09-23T06:54:57.773Z,101472.60
2022-09-23T06:57:30.049Z,101475.20
2022-09-23T07:00:01.727Z,101468.20
2022-09-23T07:02:30.494Z,101468.80
2022-09-23T07:04:59.176Z,101460.20
2022-09-23T07:07:31.755Z,101454.40
2022-09-23T07:10:00.440Z,101449.00
2022-09-23T07:12:29.128Z,101449.20
2022-09-23T07:14:57.712Z,101444.40
2022-09-23T07:17:27.253Z,101440.00
2022-09-23T07:19:55.700Z,101436.20
2022-09-23T07:22:26.615Z,101434.20
2022-09-23T07:24:57.989Z,101435.60
2022-09-23T07:27:28.864Z,101439.20
2022-09-23T07:29:57.615Z,101435.20
2022-09-23T07:32:26.295Z,101428.60
2022-09-23T07:34:55.194Z,101429.80
2022-09-23T07:37:23.780Z,101429.20
2022-09-23T07:39:52.465Z,101429.40
2022-09-23T07:42:21.050Z,101432.00
2022-09-23T07:44:49.531Z,101434.20
2022-09-23T07:47:18.525Z,101431.80
2022-09-23T07:49:47.010Z,101429.40
2022-09-23T07:52:15.548Z,101427.20
2022-09-23T07:54:48.000Z,101431.00
2022-09-23T07:57:16.753Z,101428.80
2022-09-23T07:59:45.235Z,101432.00
2022-09-23T08:02:16.747Z,101430.80
2022-09-23T08:04:45.681Z,101436.00
2022-09-23T08:07:14.779Z,101436.00
2022-09-23T08:09:44.388Z,101438.40
2022-09-23T08:12:18.075Z,101437.00
2022-09-23T08:14:46.676Z,101431.40
2022-09-23T08:17:15.156Z,101435.60
2022-09-23T08:19:43.741Z,101430.40
2022-09-23T08:22:12.541Z,101429.60
2022-09-23T08:24:41.020Z,101432.00
2022-09-23T08:27:11.133Z,101427.80
2022-09-23T08:29:39.717Z,101426.00
2022-09-23T08:32:08.201Z,101429.60
2022-09-23T08:34:37.091Z,101433.60
2022-09-23T08:37:10.590Z,101431.40
2022-09-23T08:39:39.280Z,101435.00
2022-09-23T08:42:19.229Z,101434.40
2022-09-23T08:44:57.844Z,101430.20
2022-09-23T08:48:02.123Z,101433.60
2022-09-23T08:50:42.514Z,101436.20
2022-09-23T08:53:29.144Z,101433.40
2022-09-23T08:56:01.031Z,101425.60
2022-09-23T08:59:03.789Z,101428.00
2022-09-23T09:01:58.384Z,101425.20
2022-09-23T09:04:36.182Z,101421.60
2022-09-23T09:07:34.806Z,101418.40
2022-09-23T09:10:11.805Z,101413.00
2022-09-23T09:12:46.807Z,101417.00
2022-09-23T09:15:27.626Z,101417.80
2022-09-23T09:18:12.473Z,101410.60
2022-09-23T09:21:10.305Z,101417.00
2022-09-23T09:23:57.148Z,101415.00
2022-09-23T09:26:34.605Z,101409.80
2022-09-23T09:29:41.625Z,101411.40
2022-09-23T09:32:35.770Z,101411.40
2022-09-23T09:35:38.104Z,101412.40
2022-09-23T09:38:06.935Z,101410.80
2022-09-23T09:40:35.791Z,101412.40
2022-09-23T09:43:05.026Z,101404.60
2022-09-23T09:46:08.667Z,101403.80
2022-09-23T09:49:25.655Z,101404.80
2022-09-23T09:52:31.948Z,101398.40
2022-09-23T09:55:12.634Z,101399.20
2022-09-23T09:57:52.478Z,101399.00
2022-09-23T10:00:50.966Z,101394.20
2022-09-23T10:03:38.801Z,101393.60
2022-09-23T10:06:36.158Z,101388.80
2022-09-23T10:09:22.236Z,101385.80
2022-09-23T10:12:18.711Z,101388.20
2022-09-23T10:14:51.498Z,101381.60
2022-09-23T10:17:36.440Z,101382.60
2022-09-23T10:20:10.226Z,101384.80
2022-09-23T10:22:43.057Z,101384.00
2022-09-23T10:25:24.857Z,101381.80
2022-09-23T10:27:53.922Z,101380.60
2022-09-23T10:30:28.303Z,101380.80
2022-09-23T10:32:57.462Z,101376.60
2022-09-23T10:35:26.775Z,101371.00
2022-09-23T10:37:58.170Z,101368.60
2022-09-23T10:40:48.650Z,101372.20
2022-09-23T10:43:53.019Z,101369.60
2022-09-23T10:46:45.123Z,101370.40
2022-09-23T10:49:51.937Z,101369.80
2022-09-23T10:52:36.604Z,101371.20
2022-09-23T10:55:13.992Z,101374.20
2022-09-23T10:57:45.446Z,101369.80
2022-09-23T11:00:27.138Z,101371.00
2022-09-23T11:03:04.530Z,101365.80
2022-09-23T11:05:48.067Z,101357.00
2022-09-23T11:08:43.788Z,101343.00
2022-09-23T11:12:09.003Z,101340.60
2022-09-23T11:15:34.523Z,101343.80
2022-09-23T11:18:37.413Z,101341.40
2022-09-23T11:21:49.324Z,101341.00
2022-09-23T11:25:01.012Z,101337.20
2022-09-23T11:28:07.382Z,101336.00
2022-09-23T11:31:21.863Z,101328.60
2022-09-23T11:35:11.735Z,101329.60
2022-09-23T11:37:47.278Z,101326.60
2022-09-23T11:40:31.285Z,101327.60
2022-09-23T11:43:18.765Z,101320.00
2022-09-23T11:46:01.637Z,101324.40
2022-09-23T11:48:54.636Z,101321.80
2022-09-23T11:51:39.400Z,101316.00
2022-09-23T11:54:21.232Z,101313.80
2022-09-23T11:56:58.957Z,101307.20
2022-09-23T12:00:16.058Z,101301.80
2022-09-23T12:03:18.997Z,101297.80
2022-09-23T12:06:12.841Z,101291.40
2022-09-23T12:08:41.371Z,101288.80
2022-09-23T12:11:28.357Z,101288.00
2022-09-23T12:14:41.155Z,101288.00
2022-09-23T12:17:37.544Z,101284.20
2022-09-23T12:20:31.216Z,101282.80
2022-09-23T12:23:33.902Z,101279.20
2022-09-23T12:26:08.472Z,101271.80
2022-09-23T12:28:45.318Z,101268.40
2022-09-23T12:31:18.922Z,101269.20
2022-09-23T12:33:53.883Z,101267.60
2022-09-23T12:36:35.575Z,101270.60
2022-09-23T12:39:27.670Z,101263.60
2022-09-23T12:42:03.513Z,101262.80
2022-09-23T12:44:45.437Z,101256.40
2022-09-23T12:47:25.271Z,101255.80
2022-09-23T12:49:57.550Z,101251.40
2022-09-23T12:52:31.678Z,101247.40
2022-09-23T12:55:24.919Z,101249.00
2022-09-23T12:57:53.503Z,101245.60
2022-09-23T13:00:26.915Z,101248.00
2022-09-23T13:03:19.962Z,101249.20
2022-09-23T13:06:15.784Z,101244.40
2022-09-23T13:08:46.520Z,101243.80
2022-09-23T13:11:40.705Z,101239.80
2022-09-23T13:14:16.150Z,101230.60
2022-09-23T13:16:46.130Z,101230.40
2022-09-23T13:19:26.531Z,101226.20
2022-09-23T13:21:55.017Z,101224.80
2022-09-23T13:24:23.391Z,101220.60
2022-09-23T13:26:57.608Z,101217.60
2022-09-23T13:29:55.890Z,101215.60
2022-09-23T13:32:33.171Z,101205.60
2022-09-23T13:35:36.065Z,101205.20
2022-09-23T13:38:26.667Z,101200.20
2022-09-23T13:41:28.943Z,101197.00
2022-09-23T13:43:59.516Z,101190.20
2022-09-23T13:46:34.489Z,101187.20
2022-09-23T13:49:03.501Z,101180.80
2022-09-23T13:51:35.875Z,101176.20
2022-09-23T13:54:05.416Z,101177.60
2022-09-23T13:56:36.868Z,101175.40
2022-09-23T13:59:25.180Z,101173.80
2022-09-23T14:02:17.323Z,101171.60
2022-09-23T14:04:47.141Z,101170.20
2022-09-23T14:07:19.237Z,101167.60
2022-09-23T14:09:51.241Z,101169.40
2022-09-23T14:12:22.568Z,101169.60
2022-09-23T14:14:52.997Z,101166.00
2022-09-23T14:17:23.184Z,101169.40
2022-09-23T14:19:52.056Z,101161.40
2022-09-23T14:22:31.343Z,101162.40
2022-09-23T14:25:00.188Z,101165.00
2022-09-23T14:27:36.448Z,101159.00
2022-09-23T14:30:06.142Z,101158.20
2022-09-23T14:32:34.947Z,101157.60
2022-09-23T14:35:04.251Z,101149.40
2022-09-23T14:37:59.664Z,101152.20
2022-09-23T14:40:29.012Z,101149.00
2022-09-23T14:43:39.132Z,101145.40
2022-09-23T14:46:18.589Z,101140.40
2022-09-23T14:49:13.169Z,101142.20
2022-09-23T14:52:11.673Z,101144.00
2022-09-23T14:54:42.485Z,101144.20
2022-09-23T14:57:23.562Z,101143.80
2022-09-23T15:00:09.493Z,101141.80
2022-09-23T15:02:43.490Z,101138.00
2022-09-23T15:05:30.998Z,101139.20
2022-09-23T15:08:03.140Z,101138.20
2022-09-23T15:10:37.733Z,101132.20
2022-09-23T15:13:18.153Z,101130.00
2022-09-23T15:15:47.263Z,101124.00
2022-09-23T15:18:29.244Z,101127.00
2022-09-23T15:21:03.884Z,101133.80
2022-09-23T15:23:41.879Z,101130.40
2022-09-23T15:26:22.526Z,101132.60
2022-09-23T15:28:56.085Z,101131.40
2022-09-23T15:31:26.876Z,101132.80
2022-09-23T15:33:56.286Z,101137.60
2022-09-23T15:36:27.971Z,101137.80
2022-09-23T15:39:05.643Z,101137.20
2022-09-23T15:41:34.429Z,101136.60
2022-09-23T15:44:20.687Z,101133.60
2022-09-23T15:46:52.146Z,101134.80
2022-09-23T15:49:33.156Z,101132.20
2022-09-23T15:52:04.099Z,101133.80
2022-09-23T15:54:34.070Z,101131.80
2022-09-23T15:57:02.917Z,101133.00
2022-09-23T15:59:31.947Z,101127.60
2022-09-23T16:02:08.146Z,101128.00
2022-09-23T16:04:37.671Z,101127.20
2022-09-23T16:07:06.308Z,101127.20
2022-09-23T16:09:34.940Z,101127.60
2022-09-23T16:12:03.528Z,101135.60
2022-09-23T16:14:32.210Z,101133.00
2022-09-23T16:17:03.765Z,101126.00
2022-09-23T16:19:34.501Z,101129.20
2022-09-23T16:22:04.622Z,101129.60
2022-09-23T16:24:33.308Z,101129.80
2022-09-23T16:27:06.296Z,101128.80
2022-09-23T16:29:35.331Z,101131.40
2022-09-23T16:32:04.123Z,101129.00
2022-09-23T16:34:35.134Z,101132.20
2022-09-23T16:37:05.043Z,101135.00
2022-09-23T16:39:33.622Z,101134.80
2022-09-23T16:42:02.513Z,101135.00
2022-09-23T16:44:33.352Z,101138.80
2022-09-23T16:47:02.040Z,101140.80
2022-09-23T16:49:30.519Z,101137.00
2022-09-23T16:52:01.869Z,101141.00
2022-09-23T16:54:30.483Z,101143.20
2022-09-23T16:56:59.447Z,101142.20
2022-09-23T16:59:48.000Z,101145.80
2022-09-23T17:02:35.073Z,101141.80
2022-09-23T17:05:04.114Z,101139.00
2022-09-23T17:07:32.799Z,101140.80
2022-09-23T17:10:01.692Z,101140.40
2022-09-23T17:12:33.608Z,101138.80
2022-09-23T17:15:07.551Z,101139.80
2022-09-23T17:17:38.032Z,101141.20
2022-09-23T17:20:07.715Z,101140.20
2022-09-23T17:22:36.393Z,101137.40
2022-09-23T17:25:05.898Z,101136.60
2022-09-23T17:27:35.504Z,101134.20
2022-09-23T17:30:05.936Z,101133.20
2022-09-23T17:32:34.722Z,101133.40
2022-09-23T17:35:04.959Z,101129.20
2022-09-23T17:37:34.279Z,101130.80
2022-09-23T17:40:03.346Z,101130.80
2022-09-23T17:42:32.234Z,101136.60
2022-09-23T17:45:00.716Z,101135.00
2022-09-23T17:47:29.299Z,101139.40
2022-09-23T17:49:58.369Z,101136.60
2022-09-23T17:52:26.981Z,101141.80
2022-09-23T17:54:55.463Z,101140.00
2022-09-23T17:57:23.945Z,101141.80
2022-09-23T17:59:53.963Z,101142.00
2022-09-23T18:02:23.715Z,101140.60
2022-09-23T18:04:52.265Z,101138.80
2022-09-23T18:07:20.843Z,101141.00
2022-09-23T18:09:49.427Z,101139.80
2022-09-23T18:12:18.115Z,101140.00
2022-09-23T18:14:48.029Z,101139.60
2022-09-23T18:17:17.742Z,101136.20
2022-09-23T18:19:49.602Z,101135.40
2022-09-23T18:22:18.186Z,101137.00
2022-09-23T18:24:47.098Z,101135.20
2022-09-23T18:27:16.072Z,101138.00
2022-09-23T18:29:45.069Z,101138.00
2022-09-23T18:32:14.502Z,101134.40
2022-09-23T18:34:43.874Z,101125.40
2022-09-23T18:37:16.112Z,101125.00
2022-09-23T18:39:45.140Z,101128.60
2022-09-23T18:42:14.746Z,101135.20
2022-09-23T18:44:43.536Z,101138.60
2022-09-23T18:47:32.497Z,101135.20
2022-09-23T18:50:19.719Z,101134.40
2022-09-23T18:52:48.613Z,101132.80
2022-09-23T18:55:17.299Z,101135.40
2022-09-23T18:57:48.254Z,101132.20
2022-09-23T19:00:17.333Z,101131.20
2022-09-23T19:02:46.226Z,101134.40
2022-09-23T19:05:15.325Z,101128.60
2022-09-23T19:07:44.221Z,101129.80
2022-09-23T19:10:13.004Z,101133.60
2022-09-23T19:12:41.893Z,101135.00
2022-09-23T19:15:11.253Z,101132.00
2022-09-23T19:17:39.881Z,101134.00
2022-09-23T19:20:10.388Z,101134.00
2022-09-23T19:22:39.918Z,101130.80
2022-09-23T19:25:09.323Z,101128.00
2022-09-23T19:27:39.656Z,101121.20
2022-09-23T19:30:12.108Z,101125.20
2022-09-23T19:32:41.537Z,101122.00
2022-09-23T19:35:10.498Z,101121.60
2022-09-23T19:37:39.825Z,101121.40
2022-09-23T19:40:09.819Z,101131.60
2022-09-23T19:42:38.579Z,101127.80
2022-09-23T19:45:08.316Z,101131.40
2022-09-23T19:47:38.460Z,101129.20
2022-09-23T19:50:07.969Z,101131.00
2022-09-23T19:52:36.652Z,101130.00
2022-09-23T19:55:06.793Z,101119.80
2022-09-23T19:57:35.461Z,101123.80
2022-09-23T20:00:05.743Z,101123.20
2022-09-23T20:02:42.880Z,101118.40
2022-09-23T20:05:14.566Z,101123.80
2022-09-23T20:07:45.159Z,101125.00
2022-09-23T20:10:14.873Z,101129.60
2022-09-23T20:12:44.480Z,101126.80
2022-09-23T20:15:13.267Z,101125.00
2022-09-23T20:17:41.850Z,101129.20
2022-09-23T20:20:13.536Z,101128.80
2022-09-23T20:22:42.589Z,101128.00
2022-09-23T20:25:13.855Z,101128.60
2022-09-23T20:27:42.437Z,101120.00
2022-09-23T20:30:12.187Z,101123.80
2022-09-23T20:32:44.475Z,101122.40
2022-09-23T20:35:13.924Z,101120.40
2022-09-23T20:37:42.915Z,101122.40
2022-09-23T20:40:11.643Z,101118.60
2022-09-23T20:42:40.805Z,101107.80
2022-09-23T20:45:10.220Z,101110.00
2022-09-23T20:47:38.793Z,101109.40
2022-09-23T20:50:08.510Z,101106.00
2022-09-23T20:52:37.086Z,101106.40
2022-09-23T20:55:06.622Z,101110.80
2022-09-23T20:57:35.177Z,101109.60
2022-09-23T21:00:05.412Z,101103.00
2022-09-23T21:02:34.130Z,101101.40
2022-09-23T21:05:02.776Z,101099.40
2022-09-23T21:07:32.281Z,101099.80
2022-09-23T21:10:07.215Z,101096.80
2022-09-23T21:12:36.108Z,101089.80
2022-09-23T21:15:07.566Z,101089.80
2022-09-23T21:17:36.345Z,101094.20
2022-09-23T21:20:06.203Z,101090.00
2022-09-23T21:22:35.768Z,101096.00
2022-09-23T21:27:54.440Z,101089.80
2022-09-23T21:30:23.432Z,101088.00
2022-09-23T21:32:52.225Z,101082.00
2022-09-23T21:35:21.992Z,101081.40
2022-09-23T21:37:50.825Z,101077.40
2022-09-23T21:40:38.060Z,101076.00
2022-09-23T21:43:07.042Z,101077.40
2022-09-23T21:45:35.623Z,101078.00
2022-09-23T21:48:05.337Z,101076.20
2022-09-23T21:50:37.501Z,101073.80
2022-09-23T21:53:07.008Z,101076.80
2022-09-23T21:55:35.593Z,101076.00
2022-09-23T21:58:04.902Z,101076.00
2022-09-23T22:00:33.506Z,101074.80
2022-09-23T22:03:02.972Z,101075.80
2022-09-23T22:05:31.876Z,101077.00
2022-09-23T22:08:00.460Z,101075.60
2022-09-23T22:10:29.251Z,101074.40
2022-09-23T22:12:57.841Z,101071.80
2022-09-23T22:15:26.623Z,101069.40
2022-09-23T22:17:58.391Z,101068.80
2022-09-23T22:20:28.410Z,101068.80
2022-09-23T22:22:57.600Z,101063.60
2022-09-23T22:25:26.183Z,101065.60
2022-09-23T22:28:14.223Z,101063.60
2022-09-23T22:31:01.608Z,101061.00
2022-09-23T22:33:30.235Z,101061.40
2022-09-23T22:36:04.034Z,101061.80
2022-09-23T22:38:33.241Z,101057.60
2022-09-23T22:41:02.113Z,101053.40
2022-09-23T22:43:33.788Z,101054.80
2022-09-23T22:46:02.889Z,101054.60
2022-09-23T22:48:31.368Z,101050.40
2022-09-23T22:50:59.852Z,101048.40
2022-09-23T22:53:28.672Z,101048.40
2022-09-23T22:56:01.423Z,101046.40
2022-09-23T22:58:32.615Z,101045.20
2022-09-23T23:01:02.786Z,101042.60
2022-09-23T23:03:33.709Z,101049.80
2022-09-23T23:06:03.439Z,101047.60
2022-09-23T23:08:32.228Z,101044.20
2022-09-23T23:11:11.665Z,101044.00
2022-09-23T23:13:42.033Z,101043.00
2022-09-23T23:16:13.153Z,101044.00
2022-09-23T23:18:43.507Z,101036.40
2022-09-23T23:21:18.336Z,101038.00
2022-09-23T23:23:53.082Z,101036.00
2022-09-23T23:26:25.742Z,101032.80
2022-09-23T23:28:56.922Z,101031.40
2022-09-23T23:31:29.169Z,101030.40
2022-09-23T23:33:58.112Z,101035.00
2022-09-23T23:36:26.593Z,101034.80
2022-09-23T23:38:55.177Z,101034.40
2022-09-23T23:41:23.973Z,101027.20
2022-09-23T23:43:59.432Z,101030.20
2022-09-23T23:46:31.140Z,101022.00
2022-09-23T23:49:00.577Z,101028.40
2022-09-23T23:51:30.221Z,101023.80
2022-09-23T23:53:59.720Z,101023.60
2022-09-23T23:56:30.738Z,101022.40
2022-09-23T23:59:02.757Z,101018.80
